Douglasville, Georgia
Current Conditions -  °F | °C
As of 7:53 PM on Saturday 25 Oct 2014 (Local Time) from KFTY Reporting Station
Clear Clear  
Wind Chill: 62°   Ceiling: Unl
Heat Index: 62°   Visibility: 10mi
Dew Point: 50°   Wind: 0mph
Humidity: 65%   Direction: NA
Pressure: 30.03"   Gusts: NA
Location:  33.75°N, 84.75°W
Report Text: KFTY 252353Z 00000KT 10SM CLR 17/10 A3003 RMK AO2 SLP165 T01670100 10239 20167 51004
Loading
Personal Weather Stations






























Interactive Weather Map
Tropical Storm Tracking
New forecast layout! Learn more

10-Day Weather Forecast

Advertisements
Track Severe Weather on mobile